createdAt,value
2022-08-26T00:01:44.303Z,80.46
2022-08-26T00:04:12.918Z,80.20
2022-08-26T00:06:42.692Z,80.27
2022-08-26T00:09:15.992Z,80.53
2022-08-26T00:11:44.382Z,80.67
2022-08-26T00:14:12.034Z,80.80
2022-08-26T00:16:41.075Z,80.77
2022-08-26T00:19:17.263Z,80.83
2022-08-26T00:21:44.399Z,80.91
2022-08-26T00:24:11.244Z,81.39
2022-08-26T00:26:39.439Z,81.30
2022-08-26T00:29:08.598Z,80.83
2022-08-26T00:31:36.734Z,80.64
2022-08-26T00:34:04.566Z,80.51
2022-08-26T00:36:32.085Z,80.49
2022-08-26T00:38:59.281Z,80.79
2022-08-26T00:41:26.524Z,81.08
2022-08-26T00:43:54.600Z,81.17
2022-08-26T00:46:27.013Z,81.08
2022-08-26T00:49:11.965Z,80.92
2022-08-26T00:51:53.739Z,81.04
2022-08-26T00:54:24.469Z,80.86
2022-08-26T00:57:01.049Z,80.82
2022-08-26T00:59:32.815Z,80.86
2022-08-26T01:02:02.774Z,81.15
2022-08-26T01:04:33.473Z,81.17
2022-08-26T01:07:01.331Z,80.83
2022-08-26T01:09:28.629Z,81.06
2022-08-26T01:11:59.799Z,81.80
2022-08-26T01:14:31.116Z,82.44
2022-08-26T01:16:59.013Z,83.26
2022-08-26T01:19:30.633Z,83.56
2022-08-26T01:22:02.591Z,83.55
2022-08-26T01:24:31.158Z,83.50
2022-08-26T01:27:03.604Z,83.71
2022-08-26T01:29:33.970Z,83.67
2022-08-26T01:32:05.129Z,83.90
2022-08-26T01:34:36.347Z,83.93
2022-08-26T01:37:11.694Z,83.81
2022-08-26T01:39:43.862Z,84.03
2022-08-26T01:42:14.978Z,84.31
2022-08-26T01:44:51.670Z,84.31
2022-08-26T01:47:21.670Z,84.25
2022-08-26T01:49:53.706Z,83.85
2022-08-26T01:52:27.642Z,83.01
2022-08-26T01:54:55.747Z,82.42
2022-08-26T01:57:23.907Z,81.89
2022-08-26T01:59:53.271Z,81.80
2022-08-26T02:02:20.755Z,81.99
2022-08-26T02:04:53.536Z,82.60
2022-08-26T02:07:21.799Z,82.95
2022-08-26T02:09:49.583Z,83.27
2022-08-26T02:12:19.754Z,83.69
2022-08-26T02:14:59.870Z,83.92
2022-08-26T02:17:48.356Z,84.00
2022-08-26T02:20:20.978Z,84.14
2022-08-26T02:22:48.446Z,83.62
2022-08-26T02:25:25.274Z,82.97
2022-08-26T02:27:52.671Z,83.14
2022-08-26T02:30:24.330Z,83.32
2022-08-26T02:32:53.254Z,83.48
2022-08-26T02:35:23.198Z,83.65
2022-08-26T02:37:52.131Z,83.72
2022-08-26T02:40:28.173Z,83.64
2022-08-26T02:42:55.965Z,83.82
2022-08-26T02:45:26.424Z,83.68
2022-08-26T02:47:54.185Z,82.97
2022-08-26T02:50:25.743Z,82.19
2022-08-26T02:52:53.094Z,82.24
2022-08-26T02:55:20.520Z,81.75
2022-08-26T02:57:47.502Z,81.11
2022-08-26T03:00:15.569Z,81.25
2022-08-26T03:02:42.509Z,81.40
2022-08-26T03:05:11.445Z,81.42
2022-08-26T03:07:38.722Z,81.02
2022-08-26T03:10:08.780Z,81.06
2022-08-26T03:12:35.794Z,80.74
2022-08-26T03:15:03.357Z,80.45
2022-08-26T03:17:44.451Z,80.08
2022-08-26T03:20:11.568Z,80.54
2022-08-26T03:22:40.671Z,81.09
2022-08-26T03:25:09.934Z,81.59
2022-08-26T03:27:36.863Z,81.80
2022-08-26T03:30:20.997Z,81.88
2022-08-26T03:32:47.828Z,81.77
2022-08-26T03:35:15.327Z,81.45
2022-08-26T03:37:42.586Z,80.89
2022-08-26T03:40:11.667Z,80.86
2022-08-26T03:42:40.799Z,80.78
2022-08-26T03:45:13.252Z,81.06
2022-08-26T03:47:42.867Z,81.56
2022-08-26T03:50:13.149Z,82.16
2022-08-26T03:52:43.694Z,82.71
2022-08-26T03:55:12.074Z,83.15
2022-08-26T03:57:39.418Z,83.46
2022-08-26T04:00:09.192Z,83.64
2022-08-26T04:02:36.349Z,83.62
2022-08-26T04:05:03.323Z,83.31
2022-08-26T04:07:32.088Z,83.35
2022-08-26T04:10:00.181Z,83.22
2022-08-26T04:12:27.187Z,83.35
2022-08-26T04:14:54.061Z,83.18
2022-08-26T04:17:25.900Z,83.33
2022-08-26T04:19:54.168Z,83.40
2022-08-26T04:22:24.859Z,83.33
2022-08-26T04:24:52.455Z,82.91
2022-08-26T04:27:19.649Z,82.69
2022-08-26T04:29:47.739Z,82.46
2022-08-26T04:32:15.660Z,82.47
2022-08-26T04:34:43.906Z,82.37
2022-08-26T04:37:13.331Z,82.52
2022-08-26T04:39:40.537Z,82.99
2022-08-26T04:42:07.416Z,83.36
2022-08-26T04:44:36.399Z,83.95
2022-08-26T04:47:03.423Z,84.16
2022-08-26T04:49:35.257Z,84.63
2022-08-26T04:52:03.931Z,84.52
2022-08-26T04:54:31.773Z,84.45
2022-08-26T04:56:59.309Z,84.24
2022-08-26T04:59:26.315Z,84.32
2022-08-26T05:01:57.568Z,84.38
2022-08-26T05:04:24.817Z,84.39
2022-08-26T05:06:53.419Z,83.70
2022-08-26T05:09:22.728Z,83.24
2022-08-26T05:11:52.223Z,82.98
2022-08-26T05:14:20.962Z,82.58
2022-08-26T05:16:48.071Z,81.86
2022-08-26T05:19:19.274Z,81.14
2022-08-26T05:21:48.524Z,80.42
2022-08-26T05:24:17.859Z,79.73
2022-08-26T05:26:44.950Z,79.10
2022-08-26T05:29:12.470Z,79.21
2022-08-26T05:31:39.292Z,78.60
2022-08-26T05:34:06.988Z,77.60
2022-08-26T05:36:36.992Z,76.42
2022-08-26T05:39:10.447Z,75.20
2022-08-26T05:41:41.243Z,74.85
2022-08-26T05:44:11.047Z,75.21
2022-08-26T05:46:39.717Z,75.16
2022-08-26T05:49:12.534Z,74.88
2022-08-26T05:51:41.841Z,74.18
2022-08-26T05:54:10.384Z,72.34
2022-08-26T05:56:39.041Z,71.19
2022-08-26T05:59:10.899Z,70.03
2022-08-26T06:01:43.682Z,70.31
2022-08-26T06:04:12.070Z,69.61
2022-08-26T06:06:41.502Z,68.88
2022-08-26T06:09:11.233Z,68.87
2022-08-26T06:11:39.651Z,68.27
2022-08-26T06:14:08.566Z,67.68
2022-08-26T06:16:38.752Z,66.20
2022-08-26T06:19:10.732Z,65.58
2022-08-26T06:21:41.290Z,64.91
2022-08-26T06:24:28.325Z,63.99
2022-08-26T06:26:57.792Z,63.40
2022-08-26T06:29:26.427Z,63.09
2022-08-26T06:31:56.125Z,62.62
2022-08-26T06:34:40.677Z,62.25
2022-08-26T06:37:09.018Z,61.64
2022-08-26T06:39:35.866Z,61.29
2022-08-26T06:42:08.711Z,60.04
2022-08-26T06:44:37.999Z,58.29
2022-08-26T06:47:07.913Z,57.84
2022-08-26T06:49:35.128Z,56.20
2022-08-26T06:52:02.559Z,56.19
2022-08-26T06:54:31.805Z,54.55
2022-08-26T06:56:59.424Z,54.20
2022-08-26T06:59:26.252Z,53.71
2022-08-26T07:01:54.797Z,52.43
2022-08-26T07:04:24.584Z,52.75
2022-08-26T07:06:54.270Z,54.13
2022-08-26T07:09:23.997Z,52.17
2022-08-26T07:11:52.050Z,52.43
2022-08-26T07:14:21.498Z,51.45
2022-08-26T07:16:50.654Z,50.00
2022-08-26T07:19:30.368Z,48.56
2022-08-26T07:22:02.252Z,47.07
2022-08-26T07:24:31.238Z,47.13
2022-08-26T07:27:01.664Z,47.70
2022-08-26T07:29:30.890Z,48.37
2022-08-26T07:31:59.452Z,48.43
2022-08-26T07:34:27.334Z,46.40
2022-08-26T07:36:55.273Z,45.49
2022-08-26T07:39:23.014Z,45.90
2022-08-26T07:41:50.394Z,44.27
2022-08-26T07:44:18.036Z,44.43
2022-08-26T07:46:51.286Z,43.19
2022-08-26T07:49:20.926Z,42.87
2022-08-26T07:51:48.856Z,42.24
2022-08-26T07:54:16.787Z,40.28
2022-08-26T07:56:44.670Z,40.54
2022-08-26T07:59:14.068Z,39.37
2022-08-26T08:01:44.733Z,39.65
2022-08-26T08:04:15.421Z,39.57
2022-08-26T08:06:43.860Z,38.90
2022-08-26T08:09:13.329Z,37.21
2022-08-26T08:11:41.471Z,36.59
2022-08-26T08:14:11.747Z,36.43
2022-08-26T08:16:46.128Z,35.90
2022-08-26T08:19:15.700Z,34.05
2022-08-26T08:21:44.067Z,33.99
2022-08-26T08:24:11.605Z,34.45
2022-08-26T08:26:39.361Z,33.45
2022-08-26T08:29:08.498Z,31.88
2022-08-26T08:31:56.845Z,30.81
2022-08-26T08:34:24.515Z,29.90
2022-08-26T08:36:53.485Z,30.82
2022-08-26T08:39:20.754Z,30.46
2022-08-26T08:42:20.487Z,28.84
2022-08-26T08:44:54.007Z,27.72
2022-08-26T08:47:39.396Z,26.56
2022-08-26T08:50:12.364Z,25.70
2022-08-26T08:52:41.446Z,25.54
2022-08-26T08:55:13.662Z,25.21
2022-08-26T08:57:42.091Z,24.52
2022-08-26T09:00:18.182Z,24.62
2022-08-26T09:02:53.109Z,24.94
2022-08-26T09:05:42.597Z,25.39
2022-08-26T09:08:19.727Z,24.94
2022-08-26T09:10:53.961Z,24.83
2022-08-26T09:13:24.898Z,24.87
2022-08-26T09:16:13.968Z,24.44
2022-08-26T09:19:00.636Z,24.59
2022-08-26T09:21:29.957Z,23.87
2022-08-26T09:23:57.656Z,24.23
2022-08-26T09:26:39.952Z,25.01
2022-08-26T09:31:52.387Z,22.65
2022-08-26T09:34:23.202Z,23.52
2022-08-26T09:36:53.741Z,23.07
2022-08-26T09:39:25.976Z,23.33
2022-08-26T09:42:25.692Z,24.06
2022-08-26T09:44:54.459Z,22.80
2022-08-26T09:47:39.067Z,23.93
2022-08-26T09:50:28.888Z,23.92
2022-08-26T09:53:09.901Z,23.46
2022-08-26T09:55:42.613Z,24.61
2022-08-26T09:58:14.728Z,25.08
2022-08-26T10:00:52.915Z,24.91
2022-08-26T10:03:33.007Z,24.25
2022-08-26T10:06:04.481Z,24.61
2022-08-26T10:08:34.494Z,24.84
2022-08-26T10:11:05.613Z,25.14
2022-08-26T10:13:41.125Z,26.66
2022-08-26T10:16:22.374Z,26.22
2022-08-26T10:18:59.906Z,26.69
2022-08-26T10:21:35.559Z,26.89
2022-08-26T10:24:04.532Z,27.44
2022-08-26T10:26:43.286Z,28.72
2022-08-26T10:29:19.994Z,26.67
2022-08-26T10:32:10.480Z,27.38
2022-08-26T10:34:40.846Z,27.55
2022-08-26T10:37:21.612Z,26.94
2022-08-26T10:39:58.685Z,28.27
2022-08-26T10:42:40.644Z,27.88
2022-08-26T10:45:15.304Z,27.37
2022-08-26T10:47:46.304Z,28.90
2022-08-26T10:50:15.089Z,27.89
2022-08-26T10:53:08.751Z,28.33
2022-08-26T10:55:54.950Z,28.91
2022-08-26T10:58:45.650Z,28.84
2022-08-26T11:01:50.847Z,28.49
2022-08-26T11:04:47.086Z,26.49
2022-08-26T11:07:33.257Z,29.10
2022-08-26T11:10:17.390Z,27.69
2022-08-26T11:12:49.291Z,27.38
2022-08-26T11:15:32.151Z,27.79
2022-08-26T11:18:04.408Z,27.80
2022-08-26T11:20:47.339Z,27.25
2022-08-26T11:23:23.224Z,26.65
2022-08-26T11:25:59.831Z,26.11
2022-08-26T11:28:44.031Z,27.08
2022-08-26T11:31:31.763Z,27.40
2022-08-26T11:34:07.235Z,26.96
2022-08-26T11:36:47.792Z,25.50
2022-08-26T11:39:18.492Z,25.65
2022-08-26T11:41:49.512Z,25.71
2022-08-26T11:44:24.845Z,25.78
2022-08-26T11:46:57.073Z,26.06
2022-08-26T11:49:25.023Z,25.03
2022-08-26T11:51:52.098Z,25.29
2022-08-26T11:54:35.353Z,24.33
2022-08-26T11:57:09.417Z,24.76
2022-08-26T11:59:41.396Z,22.99
2022-08-26T12:02:17.750Z,23.12
2022-08-26T12:04:49.902Z,23.70
2022-08-26T12:07:24.162Z,23.18
2022-08-26T12:09:56.552Z,24.01
2022-08-26T12:12:26.901Z,22.87
2022-08-26T12:15:10.724Z,21.23
2022-08-26T12:17:39.505Z,20.93
2022-08-26T12:20:19.244Z,20.83
2022-08-26T12:22:48.273Z,21.24
2022-08-26T12:25:23.980Z,21.52
2022-08-26T12:27:54.040Z,20.64
2022-08-26T12:30:26.205Z,20.24
2022-08-26T12:33:15.756Z,20.44
2022-08-26T12:35:54.304Z,20.12
2022-08-26T12:38:22.792Z,20.83
2022-08-26T12:40:50.425Z,20.67
2022-08-26T12:43:39.469Z,20.13
2022-08-26T12:46:09.140Z,19.81
2022-08-26T12:48:40.975Z,20.88
2022-08-26T12:51:16.488Z,20.68
2022-08-26T12:53:44.772Z,20.93
2022-08-26T12:56:38.871Z,20.75
2022-08-26T12:59:22.844Z,21.59
2022-08-26T13:01:50.358Z,20.47
2022-08-26T13:04:41.328Z,20.72
2022-08-26T13:07:25.087Z,21.25
2022-08-26T13:09:54.995Z,21.17
2022-08-26T13:12:24.654Z,21.05
2022-08-26T13:14:51.617Z,21.63
2022-08-26T13:17:18.468Z,22.04
2022-08-26T13:19:45.330Z,21.83
2022-08-26T13:22:13.864Z,20.29
2022-08-26T13:24:43.711Z,20.81
2022-08-26T13:27:13.213Z,20.98
2022-08-26T13:29:41.549Z,20.57
2022-08-26T13:32:09.306Z,20.23
2022-08-26T13:34:37.636Z,20.83
2022-08-26T13:37:05.315Z,21.07
2022-08-26T13:39:33.249Z,20.87
2022-08-26T13:42:00.313Z,20.33
2022-08-26T13:44:27.723Z,20.87
2022-08-26T13:46:54.853Z,21.50
2022-08-26T13:49:22.796Z,20.86
2022-08-26T13:51:49.896Z,19.43
2022-08-26T13:54:16.775Z,19.83
2022-08-26T13:56:43.759Z,20.29
2022-08-26T13:59:10.908Z,20.65
2022-08-26T14:01:40.264Z,20.90
2022-08-26T14:04:08.554Z,21.58
2022-08-26T14:06:35.893Z,20.81
2022-08-26T14:09:03.066Z,20.71
2022-08-26T14:11:30.334Z,21.16
2022-08-26T14:14:13.711Z,20.01
2022-08-26T14:16:59.023Z,20.11
2022-08-26T14:19:28.166Z,20.24
2022-08-26T14:21:55.057Z,20.03
2022-08-26T14:24:22.595Z,20.60
2022-08-26T14:26:49.433Z,20.80
2022-08-26T14:29:16.904Z,20.70
2022-08-26T14:31:44.428Z,21.72
2022-08-26T14:34:13.969Z,22.06
2022-08-26T14:36:40.901Z,22.05
2022-08-26T14:39:10.683Z,22.88
2022-08-26T14:41:44.932Z,23.30
2022-08-26T14:44:14.683Z,23.47
2022-08-26T14:46:49.041Z,23.75
2022-08-26T14:49:17.739Z,23.79
2022-08-26T14:51:45.068Z,24.13
2022-08-26T14:54:13.743Z,25.07
2022-08-26T14:57:01.163Z,25.06
2022-08-26T14:59:32.129Z,24.70
2022-08-26T15:02:00.650Z,25.60
2022-08-26T15:04:28.745Z,26.55
2022-08-26T15:06:58.907Z,26.76
2022-08-26T15:09:26.700Z,26.87
2022-08-26T15:11:53.620Z,27.81
2022-08-26T15:14:21.689Z,28.83
2022-08-26T15:16:50.322Z,29.51
2022-08-26T15:19:18.507Z,28.13
2022-08-26T15:21:47.540Z,27.90
2022-08-26T15:24:16.660Z,28.60
2022-08-26T15:26:44.937Z,28.85
2022-08-26T15:29:11.904Z,28.97
2022-08-26T15:31:39.184Z,28.91
2022-08-26T15:34:13.150Z,29.72
2022-08-26T15:36:45.769Z,29.64
2022-08-26T15:39:13.850Z,29.86
2022-08-26T15:41:41.209Z,30.32
2022-08-26T15:44:08.391Z,29.66
2022-08-26T15:46:36.406Z,29.40
2022-08-26T15:49:05.142Z,30.45
2022-08-26T15:51:35.820Z,31.74
2022-08-26T15:54:13.660Z,31.35
2022-08-26T15:56:40.630Z,31.76
2022-08-26T15:59:08.222Z,31.40
2022-08-26T16:01:35.731Z,31.86
2022-08-26T16:04:03.930Z,32.38
2022-08-26T16:06:33.929Z,33.34
2022-08-26T16:09:01.443Z,32.87
2022-08-26T16:11:28.731Z,33.49
2022-08-26T16:13:56.059Z,33.59
2022-08-26T16:16:23.426Z,34.25
2022-08-26T16:18:50.501Z,34.11
2022-08-26T16:21:20.183Z,34.73
2022-08-26T16:23:47.469Z,34.71
2022-08-26T16:26:17.756Z,34.94
2022-08-26T16:28:45.134Z,35.64
2022-08-26T16:31:12.234Z,36.33
2022-08-26T16:33:39.345Z,36.07
2022-08-26T16:36:08.417Z,36.09
2022-08-26T16:38:36.299Z,36.71
2022-08-26T16:41:04.432Z,36.93
2022-08-26T16:43:31.506Z,37.60
2022-08-26T16:45:58.700Z,38.73
2022-08-26T16:48:26.953Z,39.21
2022-08-26T16:50:55.752Z,40.39
2022-08-26T16:53:23.496Z,40.95
2022-08-26T16:55:51.387Z,43.12
2022-08-26T16:58:20.402Z,46.54
2022-08-26T17:00:49.114Z,47.40
2022-08-26T17:03:16.040Z,47.17
2022-08-26T17:05:42.928Z,47.79
2022-08-26T17:08:10.218Z,49.34
2022-08-26T17:10:37.796Z,49.69
2022-08-26T17:13:04.989Z,48.99
2022-08-26T17:15:32.043Z,51.86
2022-08-26T17:17:59.215Z,52.52
2022-08-26T17:20:26.775Z,52.89
2022-08-26T17:22:56.061Z,53.58
2022-08-26T17:25:28.064Z,54.88
2022-08-26T17:30:27.127Z,53.02
2022-08-26T17:32:56.983Z,50.59
2022-08-26T17:35:24.733Z,50.14
2022-08-26T17:37:52.891Z,53.63
2022-08-26T17:40:24.150Z,55.18
2022-08-26T17:42:51.945Z,51.58
2022-08-26T17:47:48.271Z,55.34
2022-08-26T17:50:17.135Z,53.68
2022-08-26T17:52:45.154Z,52.69
2022-08-26T17:55:15.150Z,53.08
2022-08-26T17:57:44.746Z,53.40
2022-08-26T18:00:23.593Z,53.94
2022-08-26T18:02:50.502Z,54.32
2022-08-26T18:05:17.926Z,54.97
2022-08-26T18:07:45.151Z,55.29
2022-08-26T18:10:15.572Z,55.91
2022-08-26T18:12:43.093Z,58.38
2022-08-26T18:15:11.658Z,58.03
2022-08-26T18:17:39.417Z,59.60
2022-08-26T18:20:09.683Z,60.59
2022-08-26T18:22:36.579Z,60.97
2022-08-26T18:25:05.415Z,61.41
2022-08-26T18:27:32.854Z,61.65
2022-08-26T18:30:00.306Z,61.97
2022-08-26T18:32:27.495Z,62.55
2022-08-26T18:34:54.474Z,63.28
2022-08-26T18:37:21.362Z,63.06
2022-08-26T18:39:48.778Z,63.53
2022-08-26T18:42:15.612Z,63.52
2022-08-26T18:44:42.632Z,63.71
2022-08-26T18:47:09.481Z,63.61
2022-08-26T18:49:36.695Z,63.75
2022-08-26T18:52:05.533Z,64.25
2022-08-26T18:54:32.684Z,64.63
2022-08-26T18:56:59.642Z,65.36
2022-08-26T18:59:29.688Z,65.43
2022-08-26T19:01:57.921Z,65.82
2022-08-26T19:04:26.060Z,65.60
2022-08-26T19:06:53.420Z,65.89
2022-08-26T19:09:21.098Z,66.10
2022-08-26T19:11:49.692Z,66.17
2022-08-26T19:14:17.478Z,66.34
2022-08-26T19:16:48.765Z,66.57
2022-08-26T19:19:16.235Z,65.53
2022-08-26T19:21:43.764Z,65.07
2022-08-26T19:24:17.544Z,66.35
2022-08-26T19:26:46.466Z,67.12
2022-08-26T19:29:13.816Z,68.35
2022-08-26T19:31:42.305Z,68.56
2022-08-26T19:34:11.321Z,69.35
2022-08-26T19:36:38.916Z,69.95
2022-08-26T19:39:09.995Z,70.43
2022-08-26T19:41:39.194Z,70.96
2022-08-26T19:44:11.534Z,70.89
2022-08-26T19:49:10.723Z,70.38
2022-08-26T19:51:37.795Z,70.59
2022-08-26T19:54:04.975Z,70.06
2022-08-26T19:56:31.880Z,70.41
2022-08-26T19:58:58.871Z,71.38
2022-08-26T20:01:25.818Z,71.58
2022-08-26T20:03:53.058Z,71.47
2022-08-26T20:06:20.910Z,71.14
2022-08-26T20:08:50.818Z,70.92
2022-08-26T20:11:20.765Z,71.19
2022-08-26T20:13:48.286Z,72.05
2022-08-26T20:16:16.253Z,72.06
2022-08-26T20:21:45.878Z,72.90
2022-08-26T20:24:16.231Z,72.87
2022-08-26T20:26:44.695Z,73.03
2022-08-26T20:29:15.610Z,73.41
2022-08-26T20:31:44.272Z,73.66
2022-08-26T20:34:13.574Z,73.32
2022-08-26T20:36:41.583Z,73.57
2022-08-26T20:39:10.589Z,73.62
2022-08-26T20:41:38.162Z,74.24
2022-08-26T20:44:05.927Z,74.39
2022-08-26T20:46:34.999Z,74.28
2022-08-26T20:49:02.496Z,74.32
2022-08-26T20:51:33.823Z,74.43
2022-08-26T20:54:01.653Z,74.47
2022-08-26T20:56:28.578Z,74.61
2022-08-26T20:58:59.423Z,74.50
2022-08-26T21:01:33.674Z,74.66
2022-08-26T21:04:03.655Z,74.87
2022-08-26T21:06:32.748Z,75.20
2022-08-26T21:09:01.566Z,75.24
2022-08-26T21:11:29.404Z,74.95
2022-08-26T21:14:06.805Z,75.41
2022-08-26T21:16:43.565Z,75.36
2022-08-26T21:19:13.920Z,75.45
2022-08-26T21:21:42.049Z,75.85
2022-08-26T21:24:09.574Z,76.02
2022-08-26T21:26:37.305Z,76.01
2022-08-26T21:29:06.806Z,76.28
2022-08-26T21:31:35.164Z,75.79
2022-08-26T21:34:02.121Z,75.72
2022-08-26T21:36:29.143Z,75.80
2022-08-26T21:38:58.069Z,75.88
2022-08-26T21:41:26.208Z,76.18
2022-08-26T21:43:56.018Z,76.41
2022-08-26T21:46:25.248Z,76.82
2022-08-26T21:48:57.193Z,77.23
2022-08-26T21:51:25.867Z,77.39
2022-08-26T21:53:53.100Z,77.29
2022-08-26T21:56:21.653Z,77.47
2022-08-26T21:58:48.709Z,77.33
2022-08-26T22:01:22.659Z,76.71
2022-08-26T22:03:52.345Z,76.67
2022-08-26T22:06:22.550Z,76.96
2022-08-26T22:08:50.169Z,77.48
2022-08-26T22:11:19.686Z,77.24
2022-08-26T22:13:48.907Z,77.03
2022-08-26T22:16:16.409Z,76.95
2022-08-26T22:18:46.037Z,76.34
2022-08-26T22:21:17.347Z,76.01
2022-08-26T22:23:46.092Z,75.86
2022-08-26T22:26:16.221Z,75.71
2022-08-26T22:28:58.531Z,75.93
2022-08-26T22:31:37.056Z,76.42
2022-08-26T22:34:09.405Z,76.23
2022-08-26T22:36:43.213Z,76.43
2022-08-26T22:39:13.756Z,76.25
2022-08-26T22:41:43.097Z,76.63
2022-08-26T22:44:11.833Z,77.31
2022-08-26T22:46:40.112Z,77.93
2022-08-26T22:49:09.721Z,78.09
2022-08-26T22:51:36.814Z,77.87
2022-08-26T22:54:04.920Z,77.63
2022-08-26T22:56:31.900Z,77.75
2022-08-26T22:58:58.744Z,78.23
2022-08-26T23:01:25.943Z,78.46
2022-08-26T23:03:53.694Z,78.29
2022-08-26T23:06:20.732Z,78.23
2022-08-26T23:08:47.877Z,78.16
2022-08-26T23:11:15.084Z,78.38
2022-08-26T23:13:42.582Z,78.37
2022-08-26T23:16:11.739Z,78.06
2022-08-26T23:18:40.896Z,78.03
2022-08-26T23:21:09.063Z,77.93
2022-08-26T23:23:36.614Z,77.88
2022-08-26T23:26:06.298Z,78.19
2022-08-26T23:28:34.619Z,78.28
2022-08-26T23:31:01.886Z,77.93
2022-08-26T23:33:49.018Z,77.46
2022-08-26T23:36:18.151Z,76.88
2022-08-26T23:38:52.351Z,76.86
2022-08-26T23:41:22.516Z,76.85
2022-08-26T23:43:49.969Z,77.24
2022-08-26T23:46:17.759Z,77.35
2022-08-26T23:48:45.055Z,77.33
2022-08-26T23:51:27.816Z,76.91
2022-08-26T23:53:54.999Z,76.46
2022-08-26T23:56:21.870Z,77.00
2022-08-26T23:58:48.771Z,77.29
